sensor_id;sensor_type;location;lat;lon;timestamp;pressure;altitude;pressure_sealevel;temperature;humidity
59110;BME280;44895;47.438;18.978;2023-02-28T00:01:12;101172.41;;;1.06;100.00
59110;BME280;44895;47.438;18.978;2023-02-28T00:04:16;101170.97;;;1.04;100.00
59110;BME280;44895;47.438;18.978;2023-02-28T00:07:19;101171.56;;;0.92;100.00
59110;BME280;44895;47.438;18.978;2023-02-28T00:10:24;101182.47;;;0.97;100.00
59110;BME280;44895;47.438;18.978;2023-02-28T00:13:28;101180.22;;;1.01;100.00
59110;BME280;44895;47.438;18.978;2023-02-28T00:16:31;101187.66;;;1.12;100.00
59110;BME280;44895;47.438;18.978;2023-02-28T00:19:35;101181.31;;;1.34;100.00
59110;BME280;44895;47.438;18.978;2023-02-28T00:22:40;101184.16;;;1.25;100.00
59110;BME280;44895;47.438;18.978;2023-02-28T00:25:44;101187.25;;;1.22;100.00
59110;BME280;44895;47.438;18.978;2023-02-28T00:28:48;101195.50;;;1.27;100.00
59110;BME280;44895;47.438;18.978;2023-02-28T00:31:51;101196.31;;;1.48;100.00
59110;BME280;44895;47.438;18.978;2023-02-28T00:34:55;101204.56;;;1.40;100.00
59110;BME280;44895;47.438;18.978;2023-02-28T00:37:58;101205.38;;;1.67;96.50
59110;BME280;44895;47.438;18.978;2023-02-28T00:41:04;101200.03;;;1.81;95.29
59110;BME280;44895;47.438;18.978;2023-02-28T00:44:08;101199.22;;;1.80;92.74
59110;BME280;44895;47.438;18.978;2023-02-28T00:47:11;101201.50;;;1.56;98.25
59110;BME280;44895;47.438;18.978;2023-02-28T00:50:18;101200.84;;;1.54;98.30
59110;BME280;44895;47.438;18.978;2023-02-28T00:53:23;101205.38;;;1.87;94.16
59110;BME280;44895;47.438;18.978;2023-02-28T00:56:27;101203.56;;;1.68;93.60
59110;BME280;44895;47.438;18.978;2023-02-28T00:59:30;101197.94;;;1.96;95.12
59110;BME280;44895;47.438;18.978;2023-02-28T01:02:34;101202.06;;;1.92;89.43
59110;BME280;44895;47.438;18.978;2023-02-28T01:05:38;101202.13;;;1.58;96.64
59110;BME280;44895;47.438;18.978;2023-02-28T01:08:41;101200.88;;;1.68;95.89
59110;BME280;44895;47.438;18.978;2023-02-28T01:11:45;101205.59;;;1.79;94.59
59110;BME280;44895;47.438;18.978;2023-02-28T01:14:48;101201.47;;;1.70;94.63
59110;BME280;44895;47.438;18.978;2023-02-28T01:17:52;101202.13;;;1.58;98.88
59110;BME280;44895;47.438;18.978;2023-02-28T01:20:56;101191.38;;;1.52;100.00
59110;BME280;44895;47.438;18.978;2023-02-28T01:23:59;101201.47;;;1.63;100.00
59110;BME280;44895;47.438;18.978;2023-02-28T01:27:03;101203.13;;;1.84;100.00
59110;BME280;44895;47.438;18.978;2023-02-28T01:30:07;101198.41;;;1.46;100.00
59110;BME280;44895;47.438;18.978;2023-02-28T01:33:11;101204.97;;;1.84;100.00
59110;BME280;44895;47.438;18.978;2023-02-28T01:36:16;101205.56;;;2.06;97.71
59110;BME280;44895;47.438;18.978;2023-02-28T01:39:20;101198.97;;;1.95;92.06
59110;BME280;44895;47.438;18.978;2023-02-28T01:42:23;101195.09;;;1.77;93.28
59110;BME280;44895;47.438;18.978;2023-02-28T01:45:30;101195.28;;;1.89;91.39
59110;BME280;44895;47.438;18.978;2023-02-28T01:48:35;101197.53;;;1.92;91.11
59110;BME280;44895;47.438;18.978;2023-02-28T01:51:50;101198.38;;;1.79;88.19
59110;BME280;44895;47.438;18.978;2023-02-28T01:54:58;101194.50;;;1.69;95.82
59110;BME280;44895;47.438;18.978;2023-02-28T01:58:04;101189.94;;;1.69;98.92
59110;BME280;44895;47.438;18.978;2023-02-28T02:01:09;101191.56;;;1.84;90.23
59110;BME280;44895;47.438;18.978;2023-02-28T02:04:12;101191.38;;;1.85;91.02
59110;BME280;44895;47.438;18.978;2023-02-28T02:07:18;101189.50;;;1.92;84.62
59110;BME280;44895;47.438;18.978;2023-02-28T02:13:54;101189.69;;;2.04;84.20
59110;BME280;44895;47.438;18.978;2023-02-28T02:29:54;101185.75;;;2.14;88.17
59110;BME280;44895;47.438;18.978;2023-02-28T02:37:15;101188.16;;;2.35;84.54
59110;BME280;44895;47.438;18.978;2023-02-28T02:40:12;101195.19;;;2.30;81.04
59110;BME280;44895;47.438;18.978;2023-02-28T02:43:22;101190.78;;;2.42;80.50
59110;BME280;44895;47.438;18.978;2023-02-28T02:49:32;101192.50;;;2.30;75.24
59110;BME280;44895;47.438;18.978;2023-02-28T02:52:41;101183.38;;;2.44;77.64
59110;BME280;44895;47.438;18.978;2023-02-28T02:55:46;101185.25;;;2.37;77.96
59110;BME280;44895;47.438;18.978;2023-02-28T02:58:58;101185.88;;;2.39;77.60
59110;BME280;44895;47.438;18.978;2023-02-28T03:02:06;101191.22;;;2.39;76.81
59110;BME280;44895;47.438;18.978;2023-02-28T03:05:16;101188.69;;;2.57;78.19
59110;BME280;44895;47.438;18.978;2023-02-28T03:08:20;101194.34;;;2.36;78.16
59110;BME280;44895;47.438;18.978;2023-02-28T03:11:24;101194.47;;;2.54;77.79
59110;BME280;44895;47.438;18.978;2023-02-28T03:17:49;101201.56;;;2.35;76.72
59110;BME280;44895;47.438;18.978;2023-02-28T03:24:03;101201.19;;;2.25;76.79
59110;BME280;44895;47.438;18.978;2023-02-28T03:27:13;101194.06;;;2.51;77.15
59110;BME280;44895;47.438;18.978;2023-02-28T03:30:23;101201.09;;;2.52;78.11
59110;BME280;44895;47.438;18.978;2023-02-28T03:33:36;101195.78;;;2.38;78.03
59110;BME280;44895;47.438;18.978;2023-02-28T03:36:46;101197.34;;;2.59;76.47
59110;BME280;44895;47.438;18.978;2023-02-28T03:39:53;101193.88;;;2.45;76.18
59110;BME280;44895;47.438;18.978;2023-02-28T03:43:03;101196.16;;;2.42;76.73
59110;BME280;44895;47.438;18.978;2023-02-28T03:46:09;101198.22;;;2.47;75.93
59110;BME280;44895;47.438;18.978;2023-02-28T03:49:18;101208.28;;;2.58;75.89
59110;BME280;44895;47.438;18.978;2023-02-28T03:52:25;101204.81;;;2.44;76.78
59110;BME280;44895;47.438;18.978;2023-02-28T03:55:32;101211.00;;;2.51;76.10
59110;BME280;44895;47.438;18.978;2023-02-28T03:58:48;101200.84;;;2.53;75.56
59110;BME280;44895;47.438;18.978;2023-02-28T04:01:54;101197.81;;;2.43;78.29
59110;BME280;44895;47.438;18.978;2023-02-28T04:04:59;101198.66;;;2.43;75.58
59110;BME280;44895;47.438;18.978;2023-02-28T04:08:03;101194.28;;;2.49;76.42
59110;BME280;44895;47.438;18.978;2023-02-28T04:11:11;101190.34;;;2.58;76.67
59110;BME280;44895;47.438;18.978;2023-02-28T04:14:15;101193.25;;;2.50;77.11
59110;BME280;44895;47.438;18.978;2023-02-28T04:17:19;101190.41;;;2.38;78.01
59110;BME280;44895;47.438;18.978;2023-02-28T04:20:23;101185.66;;;2.47;79.15
59110;BME280;44895;47.438;18.978;2023-02-28T04:23:26;101184.59;;;2.48;75.97
59110;BME280;44895;47.438;18.978;2023-02-28T04:26:30;101190.59;;;2.37;76.70
59110;BME280;44895;47.438;18.978;2023-02-28T04:29:34;101192.13;;;2.19;77.41
59110;BME280;44895;47.438;18.978;2023-02-28T04:32:38;101185.94;;;2.19;76.46
59110;BME280;44895;47.438;18.978;2023-02-28T04:35:41;101185.47;;;2.35;76.16
59110;BME280;44895;47.438;18.978;2023-02-28T04:38:45;101188.41;;;2.27;77.48
59110;BME280;44895;47.438;18.978;2023-02-28T04:41:49;101185.44;;;2.42;77.93
59110;BME280;44895;47.438;18.978;2023-02-28T04:44:53;101187.88;;;2.50;77.05
59110;BME280;44895;47.438;18.978;2023-02-28T04:47:56;101187.75;;;2.38;74.20
59110;BME280;44895;47.438;18.978;2023-02-28T04:51:10;101194.81;;;2.19;73.61
59110;BME280;44895;47.438;18.978;2023-02-28T04:54:14;101194.78;;;2.26;75.45
59110;BME280;44895;47.438;18.978;2023-02-28T04:57:19;101187.34;;;2.28;74.77
59110;BME280;44895;47.438;18.978;2023-02-28T05:00:23;101190.41;;;2.32;76.50
59110;BME280;44895;47.438;18.978;2023-02-28T05:03:26;101186.69;;;2.39;76.37
59110;BME280;44895;47.438;18.978;2023-02-28T05:06:31;101190.50;;;2.05;77.80
59110;BME280;44895;47.438;18.978;2023-02-28T05:09:35;101183.84;;;2.27;77.09
59110;BME280;44895;47.438;18.978;2023-02-28T05:12:39;101186.97;;;2.18;78.88
59110;BME280;44895;47.438;18.978;2023-02-28T05:15:42;101179.34;;;2.15;80.47
59110;BME280;44895;47.438;18.978;2023-02-28T05:18:46;101191.25;;;2.25;80.02
59110;BME280;44895;47.438;18.978;2023-02-28T05:21:53;101188.03;;;2.17;82.86
59110;BME280;44895;47.438;18.978;2023-02-28T05:24:58;101195.38;;;2.28;88.51
59110;BME280;44895;47.438;18.978;2023-02-28T05:28:02;101193.47;;;2.42;83.85
59110;BME280;44895;47.438;18.978;2023-02-28T05:31:05;101203.19;;;2.43;82.25
59110;BME280;44895;47.438;18.978;2023-02-28T05:34:09;101205.50;;;2.26;83.31
59110;BME280;44895;47.438;18.978;2023-02-28T05:37:15;101204.06;;;2.23;89.78
59110;BME280;44895;47.438;18.978;2023-02-28T05:40:19;101211.53;;;2.08;89.71
59110;BME280;44895;47.438;18.978;2023-02-28T05:43:23;101205.91;;;2.23;93.57
59110;BME280;44895;47.438;18.978;2023-02-28T05:46:27;101215.44;;;2.12;88.99
59110;BME280;44895;47.438;18.978;2023-02-28T05:49:31;101216.03;;;2.21;90.47
59110;BME280;44895;47.438;18.978;2023-02-28T05:52:36;101225.13;;;2.20;93.22
59110;BME280;44895;47.438;18.978;2023-02-28T05:55:40;101218.47;;;2.29;91.27
59110;BME280;44895;47.438;18.978;2023-02-28T05:58:44;101226.56;;;2.22;86.03
59110;BME280;44895;47.438;18.978;2023-02-28T06:01:48;101215.38;;;2.39;84.81
59110;BME280;44895;47.438;18.978;2023-02-28T06:04:51;101219.25;;;2.43;83.03
59110;BME280;44895;47.438;18.978;2023-02-28T06:07:55;101221.25;;;2.68;84.12
59110;BME280;44895;47.438;18.978;2023-02-28T06:11:02;101217.94;;;2.72;81.13
59110;BME280;44895;47.438;18.978;2023-02-28T06:14:05;101226.63;;;2.68;79.32
59110;BME280;44895;47.438;18.978;2023-02-28T06:17:09;101227.81;;;2.72;78.14
59110;BME280;44895;47.438;18.978;2023-02-28T06:20:13;101226.13;;;2.84;79.12
59110;BME280;44895;47.438;18.978;2023-02-28T06:23:16;101219.03;;;2.97;78.68
59110;BME280;44895;47.438;18.978;2023-02-28T06:26:20;101228.34;;;2.94;81.33
59110;BME280;44895;47.438;18.978;2023-02-28T06:29:24;101233.38;;;2.77;78.04
59110;BME280;44895;47.438;18.978;2023-02-28T06:32:27;101238.53;;;3.17;75.47
59110;BME280;44895;47.438;18.978;2023-02-28T06:35:31;101239.66;;;3.03;74.39
59110;BME280;44895;47.438;18.978;2023-02-28T06:38:34;101239.84;;;3.01;75.80
59110;BME280;44895;47.438;18.978;2023-02-28T06:41:38;101246.31;;;3.25;72.87
59110;BME280;44895;47.438;18.978;2023-02-28T06:44:42;101246.88;;;3.34;72.97
59110;BME280;44895;47.438;18.978;2023-02-28T06:47:46;101245.81;;;3.10;72.77
59110;BME280;44895;47.438;18.978;2023-02-28T06:51:09;101246.88;;;3.41;71.43
59110;BME280;44895;47.438;18.978;2023-02-28T06:54:12;101237.38;;;3.38;70.69
59110;BME280;44895;47.438;18.978;2023-02-28T06:57:16;101240.41;;;3.49;71.63
59110;BME280;44895;47.438;18.978;2023-02-28T07:00:20;101248.78;;;3.84;69.37
59110;BME280;44895;47.438;18.978;2023-02-28T07:03:24;101250.44;;;3.85;67.41
59110;BME280;44895;47.438;18.978;2023-02-28T07:06:28;101246.47;;;4.13;66.55
59110;BME280;44895;47.438;18.978;2023-02-28T07:09:31;101257.78;;;5.08;64.37
59110;BME280;44895;47.438;18.978;2023-02-28T07:12:35;101253.97;;;5.28;61.02
59110;BME280;44895;47.438;18.978;2023-02-28T07:15:39;101259.09;;;5.60;59.87
59110;BME280;44895;47.438;18.978;2023-02-28T07:18:43;101256.31;;;5.90;59.93
59110;BME280;44895;47.438;18.978;2023-02-28T07:21:46;101257.34;;;7.01;58.05
59110;BME280;44895;47.438;18.978;2023-02-28T07:24:50;101259.34;;;7.68;53.09
59110;BME280;44895;47.438;18.978;2023-02-28T07:27:55;101252.53;;;8.39;51.36
59110;BME280;44895;47.438;18.978;2023-02-28T07:31:05;101251.50;;;8.85;48.74
59110;BME280;44895;47.438;18.978;2023-02-28T07:34:09;101258.09;;;7.76;49.27
59110;BME280;44895;47.438;18.978;2023-02-28T07:37:13;101260.81;;;7.76;51.43
59110;BME280;44895;47.438;18.978;2023-02-28T07:40:16;101262.78;;;7.81;50.83
59110;BME280;44895;47.438;18.978;2023-02-28T07:43:21;101262.03;;;7.51;50.76
59110;BME280;44895;47.438;18.978;2023-02-28T07:46:25;101270.50;;;7.26;49.56
59110;BME280;44895;47.438;18.978;2023-02-28T07:49:29;101266.47;;;7.75;50.27
59110;BME280;44895;47.438;18.978;2023-02-28T07:52:32;101268.84;;;7.71;49.51
59110;BME280;44895;47.438;18.978;2023-02-28T07:55:36;101270.41;;;7.84;49.14
59110;BME280;44895;47.438;18.978;2023-02-28T07:58:40;101261.41;;;7.78;49.66
59110;BME280;44895;47.438;18.978;2023-02-28T08:01:45;101268.66;;;7.44;49.36
59110;BME280;44895;47.438;18.978;2023-02-28T08:04:48;101256.88;;;8.01;49.49
59110;BME280;44895;47.438;18.978;2023-02-28T08:07:52;101259.19;;;8.31;48.83
59110;BME280;44895;47.438;18.978;2023-02-28T08:11:00;101262.94;;;7.91;48.88
59110;BME280;44895;47.438;18.978;2023-02-28T08:14:04;101259.41;;;7.57;49.06
59110;BME280;44895;47.438;18.978;2023-02-28T08:17:08;101252.34;;;8.07;49.50
59110;BME280;44895;47.438;18.978;2023-02-28T08:20:12;101257.72;;;7.84;48.96
59110;BME280;44895;47.438;18.978;2023-02-28T08:23:16;101259.97;;;7.25;49.85
59110;BME280;44895;47.438;18.978;2023-02-28T08:26:20;101264.28;;;7.26;48.96
59110;BME280;44895;47.438;18.978;2023-02-28T08:29:23;101262.63;;;7.71;49.75
59110;BME280;44895;47.438;18.978;2023-02-28T08:32:27;101258.88;;;7.26;48.58
59110;BME280;44895;47.438;18.978;2023-02-28T08:35:31;101264.22;;;7.38;49.58
59110;BME280;44895;47.438;18.978;2023-02-28T08:38:35;101257.41;;;6.77;48.20
59110;BME280;44895;47.438;18.978;2023-02-28T08:41:38;101264.41;;;7.65;48.69
59110;BME280;44895;47.438;18.978;2023-02-28T08:44:42;101251.47;;;7.67;49.41
59110;BME280;44895;47.438;18.978;2023-02-28T08:47:46;101253.50;;;7.94;50.14
59110;BME280;44895;47.438;18.978;2023-02-28T08:51:03;101258.19;;;7.81;49.80
59110;BME280;44895;47.438;18.978;2023-02-28T08:54:07;101257.44;;;7.86;49.86
59110;BME280;44895;47.438;18.978;2023-02-28T08:57:11;101252.97;;;7.92;49.93
59110;BME280;44895;47.438;18.978;2023-02-28T09:00:15;101254.09;;;7.62;50.57
59110;BME280;44895;47.438;18.978;2023-02-28T09:03:18;101254.75;;;7.86;50.26
59110;BME280;44895;47.438;18.978;2023-02-28T09:06:23;101263.69;;;8.04;50.39
59110;BME280;44895;47.438;18.978;2023-02-28T09:09:27;101263.03;;;7.62;49.97
59110;BME280;44895;47.438;18.978;2023-02-28T09:12:32;101262.34;;;7.38;51.38
59110;BME280;44895;47.438;18.978;2023-02-28T09:15:38;101262.28;;;7.50;49.15
59110;BME280;44895;47.438;18.978;2023-02-28T09:18:41;101249.34;;;7.86;49.62
59110;BME280;44895;47.438;18.978;2023-02-28T09:21:45;101252.06;;;8.42;49.01
59110;BME280;44895;47.438;18.978;2023-02-28T09:24:49;101256.47;;;8.48;50.02
59110;BME280;44895;47.438;18.978;2023-02-28T09:27:53;101255.44;;;8.99;48.54
59110;BME280;44895;47.438;18.978;2023-02-28T09:30:56;101247.69;;;9.08;47.93
59110;BME280;44895;47.438;18.978;2023-02-28T09:34:01;101258.94;;;8.94;44.75
59110;BME280;44895;47.438;18.978;2023-02-28T09:37:05;101268.09;;;7.93;46.25
59110;BME280;44895;47.438;18.978;2023-02-28T09:40:09;101264.41;;;8.77;47.97
59110;BME280;44895;47.438;18.978;2023-02-28T09:43:14;101262.41;;;9.44;47.43
59110;BME280;44895;47.438;18.978;2023-02-28T09:49:38;101266.75;;;8.69;48.02
59110;BME280;44895;47.438;18.978;2023-02-28T09:52:43;101261.00;;;7.87;47.15
59110;BME280;44895;47.438;18.978;2023-02-28T09:55:49;101267.28;;;7.92;47.34
59110;BME280;44895;47.438;18.978;2023-02-28T09:59:01;101258.19;;;7.81;51.52
59110;BME280;44895;47.438;18.978;2023-02-28T10:05:13;101259.75;;;7.94;49.20
59110;BME280;44895;47.438;18.978;2023-02-28T10:08:29;101250.19;;;7.87;48.66
59110;BME280;44895;47.438;18.978;2023-02-28T10:11:34;101242.28;;;8.02;49.49
59110;BME280;44895;47.438;18.978;2023-02-28T10:14:39;101249.16;;;7.93;49.97
59110;BME280;44895;47.438;18.978;2023-02-28T10:17:47;101244.88;;;8.31;51.68
59110;BME280;44895;47.438;18.978;2023-02-28T10:20:52;101245.91;;;8.47;50.05
59110;BME280;44895;47.438;18.978;2023-02-28T10:24:03;101244.16;;;8.58;49.79
59110;BME280;44895;47.438;18.978;2023-02-28T10:27:21;101235.03;;;8.25;49.38
59110;BME280;44895;47.438;18.978;2023-02-28T10:30:25;101247.34;;;8.15;49.06
59110;BME280;44895;47.438;18.978;2023-02-28T10:33:30;101246.78;;;8.13;50.45
59110;BME280;44895;47.438;18.978;2023-02-28T10:36:34;101246.19;;;8.28;48.58
59110;BME280;44895;47.438;18.978;2023-02-28T10:39:41;101232.81;;;8.22;48.52
59110;BME280;44895;47.438;18.978;2023-02-28T10:42:55;101231.88;;;8.11;49.42
59110;BME280;44895;47.438;18.978;2023-02-28T10:49:14;101228.03;;;7.90;50.41
59110;BME280;44895;47.438;18.978;2023-02-28T10:52:37;101222.34;;;8.08;50.21
59110;BME280;44895;47.438;18.978;2023-02-28T10:55:42;101219.88;;;8.07;50.70
59110;BME280;44895;47.438;18.978;2023-02-28T11:01:59;101223.69;;;8.06;50.57
59110;BME280;44895;47.438;18.978;2023-02-28T11:05:21;101214.56;;;8.34;49.78
59110;BME280;44895;47.438;18.978;2023-02-28T11:08:26;101214.53;;;8.51;50.70
59110;BME280;44895;47.438;18.978;2023-02-28T11:11:30;101210.09;;;8.23;48.91
59110;BME280;44895;47.438;18.978;2023-02-28T11:14:49;101215.50;;;8.23;50.60
59110;BME280;44895;47.438;18.978;2023-02-28T11:18:18;101214.06;;;8.15;49.65
59110;BME280;44895;47.438;18.978;2023-02-28T11:21:18;101215.81;;;8.65;50.18
59110;BME280;44895;47.438;18.978;2023-02-28T11:30:35;101200.34;;;8.22;50.20
59110;BME280;44895;47.438;18.978;2023-02-28T11:36:49;101213.13;;;7.87;50.94
59110;BME280;44895;47.438;18.978;2023-02-28T11:39:52;101203.56;;;8.19;51.13
59110;BME280;44895;47.438;18.978;2023-02-28T11:49:26;101200.03;;;8.40;50.84
59110;BME280;44895;47.438;18.978;2023-02-28T11:52:45;101190.09;;;8.68;49.93
59110;BME280;44895;47.438;18.978;2023-02-28T11:55:54;101199.00;;;8.24;49.56
59110;BME280;44895;47.438;18.978;2023-02-28T11:59:11;101191.88;;;8.57;50.65
59110;BME280;44895;47.438;18.978;2023-02-28T12:02:26;101180.50;;;8.82;50.98
59110;BME280;44895;47.438;18.978;2023-02-28T12:05:34;101179.59;;;8.72;50.40
59110;BME280;44895;47.438;18.978;2023-02-28T12:11:52;101169.69;;;8.38;49.79
59110;BME280;44895;47.438;18.978;2023-02-28T12:18:05;101174.59;;;8.41;50.41
59110;BME280;44895;47.438;18.978;2023-02-28T12:27:35;101159.56;;;8.28;51.32
59110;BME280;44895;47.438;18.978;2023-02-28T12:30:42;101148.00;;;8.55;51.62
59110;BME280;44895;47.438;18.978;2023-02-28T12:33:51;101155.00;;;8.78;50.99
59110;BME280;44895;47.438;18.978;2023-02-28T12:36:56;101153.63;;;8.31;51.37
59110;BME280;44895;47.438;18.978;2023-02-28T12:40:04;101152.50;;;8.05;50.40
59110;BME280;44895;47.438;18.978;2023-02-28T12:43:09;101144.81;;;8.41;50.98
59110;BME280;44895;47.438;18.978;2023-02-28T12:46:21;101147.53;;;8.19;50.41
59110;BME280;44895;47.438;18.978;2023-02-28T12:49:34;101148.31;;;8.14;51.09
59110;BME280;44895;47.438;18.978;2023-02-28T12:52:53;101146.78;;;8.24;52.41
59110;BME280;44895;47.438;18.978;2023-02-28T12:56:20;101137.81;;;8.45;52.17
59110;BME280;44895;47.438;18.978;2023-02-28T13:09:08;101133.00;;;8.03;51.56
59110;BME280;44895;47.438;18.978;2023-02-28T13:12:13;101130.59;;;7.28;51.45
59110;BME280;44895;47.438;18.978;2023-02-28T13:15:22;101124.03;;;7.80;53.08
59110;BME280;44895;47.438;18.978;2023-02-28T13:18:28;101121.63;;;7.84;53.29
59110;BME280;44895;47.438;18.978;2023-02-28T13:21:33;101118.28;;;8.16;53.44
59110;BME280;44895;47.438;18.978;2023-02-28T13:27:54;101114.19;;;8.13;53.58
59110;BME280;44895;47.438;18.978;2023-02-28T13:31:02;101121.97;;;8.32;53.89
59110;BME280;44895;47.438;18.978;2023-02-28T13:34:12;101108.34;;;7.99;52.60
59110;BME280;44895;47.438;18.978;2023-02-28T13:40:27;101106.81;;;8.09;54.24
59110;BME280;44895;47.438;18.978;2023-02-28T13:47:19;101102.34;;;7.97;55.54
59110;BME280;44895;47.438;18.978;2023-02-28T13:53:39;101097.19;;;7.96;54.78
59110;BME280;44895;47.438;18.978;2023-02-28T14:03:36;101098.25;;;7.73;54.75
59110;BME280;44895;47.438;18.978;2023-02-28T14:06:46;101087.19;;;7.57;56.19
59110;BME280;44895;47.438;18.978;2023-02-28T14:10:04;101089.69;;;7.42;57.08
59110;BME280;44895;47.438;18.978;2023-02-28T14:16:47;101090.50;;;7.42;56.17
59110;BME280;44895;47.438;18.978;2023-02-28T14:19:52;101094.75;;;7.38;56.98
59110;BME280;44895;47.438;18.978;2023-02-28T14:26:10;101090.13;;;7.33;56.75
59110;BME280;44895;47.438;18.978;2023-02-28T14:32:58;101077.75;;;7.21;56.58
59110;BME280;44895;47.438;18.978;2023-02-28T14:39:18;101077.91;;;7.31;59.01
59110;BME280;44895;47.438;18.978;2023-02-28T14:45:29;101078.06;;;7.41;58.72
59110;BME280;44895;47.438;18.978;2023-02-28T14:48:33;101070.09;;;7.51;59.88
59110;BME280;44895;47.438;18.978;2023-02-28T14:51:38;101077.66;;;7.15;56.93
59110;BME280;44895;47.438;18.978;2023-02-28T14:54:42;101080.88;;;7.12;60.47
59110;BME280;44895;47.438;18.978;2023-02-28T14:57:53;101078.88;;;7.42;58.88
59110;BME280;44895;47.438;18.978;2023-02-28T15:00:59;101083.00;;;6.93;57.33
59110;BME280;44895;47.438;18.978;2023-02-28T15:04:04;101072.19;;;7.27;59.42
59110;BME280;44895;47.438;18.978;2023-02-28T15:07:14;101079.47;;;7.27;60.59
59110;BME280;44895;47.438;18.978;2023-02-28T15:10:27;101092.63;;;7.23;60.26
59110;BME280;44895;47.438;18.978;2023-02-28T15:13:41;101093.56;;;7.29;59.53
59110;BME280;44895;47.438;18.978;2023-02-28T15:16:46;101085.78;;;7.15;60.47
59110;BME280;44895;47.438;18.978;2023-02-28T15:19:51;101085.78;;;7.15;60.84
59110;BME280;44895;47.438;18.978;2023-02-28T15:22:55;101079.97;;;7.07;60.92
59110;BME280;44895;47.438;18.978;2023-02-28T15:25:59;101087.09;;;7.13;61.08
59110;BME280;44895;47.438;18.978;2023-02-28T15:29:08;101076.19;;;7.08;60.84
59110;BME280;44895;47.438;18.978;2023-02-28T15:32:05;101071.78;;;7.18;60.94
59110;BME280;44895;47.438;18.978;2023-02-28T15:38:28;101066.63;;;7.00;61.07
59110;BME280;44895;47.438;18.978;2023-02-28T15:41:36;101066.16;;;7.03;61.67
59110;BME280;44895;47.438;18.978;2023-02-28T15:44:43;101078.66;;;6.75;61.54
59110;BME280;44895;47.438;18.978;2023-02-28T15:47:46;101068.03;;;6.85;61.73
59110;BME280;44895;47.438;18.978;2023-02-28T15:50:55;101072.63;;;6.56;61.35
59110;BME280;44895;47.438;18.978;2023-02-28T15:54:00;101076.94;;;6.40;62.62
59110;BME280;44895;47.438;18.978;2023-02-28T15:57:05;101072.38;;;6.00;66.54
59110;BME280;44895;47.438;18.978;2023-02-28T16:00:13;101074.72;;;6.08;66.06
59110;BME280;44895;47.438;18.978;2023-02-28T16:03:25;101078.06;;;6.27;67.45
59110;BME280;44895;47.438;18.978;2023-02-28T16:06:36;101073.75;;;6.14;69.13
59110;BME280;44895;47.438;18.978;2023-02-28T16:09:40;101082.69;;;5.91;68.45
59110;BME280;44895;47.438;18.978;2023-02-28T16:12:45;101091.63;;;5.56;70.25
59110;BME280;44895;47.438;18.978;2023-02-28T16:15:49;101097.75;;;5.75;71.60
59110;BME280;44895;47.438;18.978;2023-02-28T16:18:54;101091.50;;;5.75;71.25
59110;BME280;44895;47.438;18.978;2023-02-28T16:21:58;101100.63;;;5.97;71.03
59110;BME280;44895;47.438;18.978;2023-02-28T16:25:02;101095.72;;;5.94;72.87
59110;BME280;44895;47.438;18.978;2023-02-28T16:28:27;101099.22;;;5.95;71.31
59110;BME280;44895;47.438;18.978;2023-02-28T16:31:36;101097.03;;;5.56;71.59
59110;BME280;44895;47.438;18.978;2023-02-28T16:34:41;101098.78;;;5.62;72.68
59110;BME280;44895;47.438;18.978;2023-02-28T16:37:45;101092.00;;;5.71;72.42
59110;BME280;44895;47.438;18.978;2023-02-28T16:40:49;101095.06;;;5.51;73.45
59110;BME280;44895;47.438;18.978;2023-02-28T16:43:54;101102.28;;;5.75;75.53
59110;BME280;44895;47.438;18.978;2023-02-28T16:47:03;101115.56;;;5.52;75.14
59110;BME280;44895;47.438;18.978;2023-02-28T16:50:18;101108.63;;;5.57;77.04
59110;BME280;44895;47.438;18.978;2023-02-28T16:53:22;101113.34;;;5.61;76.76
59110;BME280;44895;47.438;18.978;2023-02-28T16:56:26;101121.50;;;5.54;75.82
59110;BME280;44895;47.438;18.978;2023-02-28T16:59:29;101120.34;;;5.50;76.35
59110;BME280;44895;47.438;18.978;2023-02-28T17:02:34;101121.16;;;5.51;79.91
59110;BME280;44895;47.438;18.978;2023-02-28T17:05:37;101123.53;;;5.59;78.62
59110;BME280;44895;47.438;18.978;2023-02-28T17:08:42;101126.44;;;5.22;80.07
59110;BME280;44895;47.438;18.978;2023-02-28T17:11:47;101130.78;;;5.35;83.20
59110;BME280;44895;47.438;18.978;2023-02-28T17:14:51;101134.03;;;5.25;84.35
59110;BME280;44895;47.438;18.978;2023-02-28T17:17:55;101135.88;;;5.13;84.85
59110;BME280;44895;47.438;18.978;2023-02-28T17:21:00;101134.88;;;5.37;86.64
59110;BME280;44895;47.438;18.978;2023-02-28T17:24:04;101137.09;;;5.29;85.85
59110;BME280;44895;47.438;18.978;2023-02-28T17:27:10;101135.31;;;5.11;87.80
59110;BME280;44895;47.438;18.978;2023-02-28T17:30:19;101130.31;;;5.38;87.47
59110;BME280;44895;47.438;18.978;2023-02-28T17:33:23;101127.13;;;5.17;88.15
59110;BME280;44895;47.438;18.978;2023-02-28T17:36:30;101134.63;;;5.51;92.11
59110;BME280;44895;47.438;18.978;2023-02-28T17:39:37;101134.75;;;5.44;89.36
59110;BME280;44895;47.438;18.978;2023-02-28T17:42:41;101139.16;;;5.03;89.80
59110;BME280;44895;47.438;18.978;2023-02-28T17:45:44;101133.56;;;5.16;92.66
59110;BME280;44895;47.438;18.978;2023-02-28T17:48:52;101135.69;;;5.26;90.82
59110;BME280;44895;47.438;18.978;2023-02-28T17:51:55;101134.75;;;5.44;90.68
59110;BME280;44895;47.438;18.978;2023-02-28T17:54:59;101129.84;;;5.65;87.31
59110;BME280;44895;47.438;18.978;2023-02-28T17:58:03;101141.09;;;5.74;88.16
59110;BME280;44895;47.438;18.978;2023-02-28T18:01:07;101140.75;;;5.58;87.42
59110;BME280;44895;47.438;18.978;2023-02-28T18:04:11;101144.03;;;5.60;89.51
59110;BME280;44895;47.438;18.978;2023-02-28T18:07:15;101148.38;;;5.73;87.90
59110;BME280;44895;47.438;18.978;2023-02-28T18:10:19;101137.22;;;5.69;89.63
59110;BME280;44895;47.438;18.978;2023-02-28T18:13:24;101142.03;;;5.55;91.17